createdAt,value
2023-07-28T00:00:54.513Z,993.04
2023-07-28T00:02:16.168Z,992.96
2023-07-28T00:02:54.507Z,992.94
2023-07-28T00:03:54.478Z,992.92
2023-07-28T00:04:54.400Z,992.97
2023-07-28T00:05:54.384Z,992.97
2023-07-28T00:06:54.376Z,992.95
2023-07-28T00:07:54.367Z,992.98
2023-07-28T00:08:54.422Z,992.92
2023-07-28T00:09:54.341Z,992.90
2023-07-28T00:10:54.319Z,992.91
2023-07-28T00:11:54.322Z,992.89
2023-07-28T00:12:54.303Z,992.93
2023-07-28T00:13:54.303Z,992.94
2023-07-28T00:14:54.345Z,992.94
2023-07-28T00:15:54.278Z,992.90
2023-07-28T00:16:54.337Z,992.91
2023-07-28T00:17:54.356Z,992.88
2023-07-28T00:18:54.283Z,992.92
2023-07-28T00:19:54.220Z,992.94
2023-07-28T00:20:54.212Z,992.93
2023-07-28T00:21:54.202Z,992.92
2023-07-28T00:22:54.195Z,992.95
2023-07-28T00:23:54.245Z,992.86
2023-07-28T00:24:54.161Z,992.91
2023-07-28T00:25:54.161Z,992.88
2023-07-28T00:26:54.136Z,992.89
2023-07-28T00:27:54.156Z,992.93
2023-07-28T00:28:54.216Z,992.91
2023-07-28T00:29:54.113Z,992.90
2023-07-28T00:30:54.140Z,992.93
2023-07-28T00:31:54.122Z,992.88
2023-07-28T00:32:54.106Z,992.89
2023-07-28T00:33:54.078Z,992.85
2023-07-28T00:34:54.214Z,992.90
2023-07-28T00:35:54.050Z,992.85
2023-07-28T00:37:01.065Z,992.89
2023-07-28T00:37:54.019Z,992.85
2023-07-28T00:38:54.000Z,992.89
2023-07-28T00:39:54.043Z,992.84
2023-07-28T00:40:54.005Z,992.87
2023-07-28T00:41:53.984Z,992.85
2023-07-28T00:42:55.419Z,992.88
2023-07-28T00:43:53.947Z,992.89
2023-07-28T00:44:53.974Z,992.91
2023-07-28T00:45:53.966Z,992.88
2023-07-28T00:46:53.899Z,992.89
2023-07-28T00:47:54.116Z,992.83
2023-07-28T00:48:53.874Z,992.83
2023-07-28T00:49:53.921Z,992.78
2023-07-28T00:50:53.849Z,992.87
2023-07-28T00:51:53.850Z,992.81
2023-07-28T00:52:53.827Z,992.83
2023-07-28T00:53:53.889Z,992.81
2023-07-28T00:54:53.804Z,992.86
2023-07-28T00:55:53.810Z,992.85
2023-07-28T00:56:53.800Z,992.81
2023-07-28T00:57:53.777Z,992.81
2023-07-28T00:58:53.763Z,992.84
2023-07-28T00:59:53.807Z,992.84
2023-07-28T01:00:53.737Z,992.80
2023-07-28T01:01:53.767Z,992.81
2023-07-28T01:02:53.745Z,992.84
2023-07-28T01:03:53.760Z,992.85
2023-07-28T01:04:53.739Z,992.82
2023-07-28T01:05:53.737Z,992.82
2023-07-28T01:06:53.661Z,992.82
2023-07-28T01:07:53.656Z,992.81
2023-07-28T01:08:53.634Z,992.83
2023-07-28T01:09:53.684Z,992.83
2023-07-28T01:10:53.631Z,992.83
2023-07-28T01:11:53.680Z,992.80
2023-07-28T01:12:53.675Z,992.85
2023-07-28T01:13:53.618Z,992.77
2023-07-28T01:14:53.566Z,992.81
2023-07-28T01:15:53.602Z,992.78
2023-07-28T01:16:53.589Z,992.77
2023-07-28T01:17:53.623Z,992.81
2023-07-28T01:18:53.526Z,992.78
2023-07-28T01:19:53.534Z,992.83
2023-07-28T01:20:53.499Z,992.80
2023-07-28T01:21:53.478Z,992.80
2023-07-28T01:22:53.517Z,992.77
2023-07-28T01:23:53.459Z,992.79
2023-07-28T01:24:53.454Z,992.82
2023-07-28T01:25:53.436Z,992.80
2023-07-28T01:26:53.478Z,992.75
2023-07-28T01:27:53.440Z,992.78
2023-07-28T01:28:53.403Z,992.75
2023-07-28T01:29:53.389Z,992.77
2023-07-28T01:30:53.379Z,992.73
2023-07-28T01:31:53.377Z,992.75
2023-07-28T01:32:53.362Z,992.81
2023-07-28T01:33:53.382Z,992.73
2023-07-28T01:34:53.341Z,992.74
2023-07-28T01:35:53.310Z,992.76
2023-07-28T01:36:53.318Z,992.69
2023-07-28T01:37:53.298Z,992.69
2023-07-28T01:38:53.328Z,992.73
2023-07-28T01:39:53.287Z,992.70
2023-07-28T01:40:53.313Z,992.70
2023-07-28T01:41:53.289Z,992.65
2023-07-28T01:42:53.240Z,992.73
2023-07-28T01:43:53.244Z,992.69
2023-07-28T01:44:53.336Z,992.71
2023-07-28T01:45:53.250Z,992.67
2023-07-28T01:46:53.197Z,992.70
2023-07-28T01:47:53.244Z,992.68
2023-07-28T01:48:53.166Z,992.72
2023-07-28T01:49:53.148Z,992.67
2023-07-28T01:50:53.198Z,992.69
2023-07-28T01:51:53.139Z,992.67
2023-07-28T01:52:53.117Z,992.78
2023-07-28T01:53:53.097Z,992.71
2023-07-28T01:54:53.099Z,992.74
2023-07-28T01:55:53.082Z,992.70
2023-07-28T01:56:53.107Z,992.71
2023-07-28T01:57:53.055Z,992.72
2023-07-28T01:58:53.049Z,992.73
2023-07-28T01:59:53.031Z,992.73
2023-07-28T02:00:53.056Z,992.72
2023-07-28T02:01:53.064Z,992.72
2023-07-28T02:02:53.029Z,992.76
2023-07-28T02:03:53.046Z,992.75
2023-07-28T02:04:52.984Z,992.77
2023-07-28T02:05:53.018Z,992.77
2023-07-28T02:06:52.960Z,992.73
2023-07-28T02:07:52.968Z,992.77
2023-07-28T02:08:52.941Z,992.80
2023-07-28T02:09:52.912Z,992.75
2023-07-28T02:10:52.915Z,992.77
2023-07-28T02:11:52.958Z,992.76
2023-07-28T02:12:52.881Z,992.79
2023-07-28T02:13:52.868Z,992.79
2023-07-28T02:14:52.857Z,992.82
2023-07-28T02:15:52.843Z,992.79
2023-07-28T02:16:52.850Z,992.79
2023-07-28T02:17:52.978Z,992.73
2023-07-28T02:18:52.806Z,992.78
2023-07-28T02:19:52.855Z,992.77
2023-07-28T02:20:52.784Z,992.76
2023-07-28T02:21:52.773Z,992.76
2023-07-28T02:22:52.775Z,992.79
2023-07-28T02:23:52.743Z,992.80
2023-07-28T02:24:52.751Z,992.80
2023-07-28T02:25:52.737Z,992.78
2023-07-28T02:26:52.761Z,992.79
2023-07-28T02:27:52.727Z,992.81
2023-07-28T02:28:52.732Z,992.84
2023-07-28T02:29:52.670Z,992.81
2023-07-28T02:30:52.700Z,992.82
2023-07-28T02:31:52.662Z,992.76
2023-07-28T02:32:52.802Z,992.77
2023-07-28T02:33:52.622Z,992.79
2023-07-28T02:34:52.686Z,992.79
2023-07-28T02:35:52.601Z,992.85
2023-07-28T02:36:52.589Z,992.82
2023-07-28T02:37:52.715Z,992.80
2023-07-28T02:38:52.577Z,992.84
2023-07-28T02:39:52.576Z,992.82
2023-07-28T02:40:52.566Z,992.88
2023-07-28T02:41:52.585Z,992.81
2023-07-28T02:42:52.522Z,992.82
2023-07-28T02:43:52.502Z,992.80
2023-07-28T02:44:52.510Z,992.80
2023-07-28T02:45:52.498Z,992.82
2023-07-28T02:46:52.554Z,992.85
2023-07-28T02:47:52.554Z,992.89
2023-07-28T02:48:52.443Z,992.89
2023-07-28T02:49:52.435Z,992.92
2023-07-28T02:50:52.455Z,992.92
2023-07-28T02:51:52.577Z,992.94
2023-07-28T02:52:52.409Z,992.97
2023-07-28T02:53:52.429Z,992.97
2023-07-28T02:54:52.380Z,992.97
2023-07-28T02:55:52.377Z,993.03
2023-07-28T02:56:52.355Z,992.98
2023-07-28T02:57:52.338Z,993.03
2023-07-28T02:58:52.340Z,993.05
2023-07-28T02:59:52.419Z,993.03
2023-07-28T03:00:52.307Z,993.03
2023-07-28T03:01:52.336Z,993.08
2023-07-28T03:02:52.448Z,993.07
2023-07-28T03:03:52.311Z,993.03
2023-07-28T03:04:52.322Z,993.04
2023-07-28T03:05:52.248Z,993.08
2023-07-28T03:06:52.239Z,993.04
2023-07-28T03:07:52.227Z,993.06
2023-07-28T03:08:52.280Z,993.02
2023-07-28T03:09:52.198Z,993.05
2023-07-28T03:10:52.226Z,993.08
2023-07-28T03:11:52.171Z,993.05
2023-07-28T03:12:52.162Z,993.06
2023-07-28T03:13:52.149Z,993.04
2023-07-28T03:14:52.198Z,993.05
2023-07-28T03:15:52.194Z,993.06
2023-07-28T03:16:52.111Z,993.03
2023-07-28T03:17:52.140Z,993.04
2023-07-28T03:18:52.093Z,993.06
2023-07-28T03:19:52.129Z,993.05
2023-07-28T03:20:52.074Z,993.11
2023-07-28T03:21:52.056Z,993.12
2023-07-28T03:22:52.137Z,993.15
2023-07-28T03:23:52.038Z,993.11
2023-07-28T03:24:52.031Z,993.13
2023-07-28T03:25:52.013Z,993.10
2023-07-28T03:26:51.998Z,993.14
2023-07-28T03:27:52.004Z,993.17
2023-07-28T03:28:52.048Z,993.17
2023-07-28T03:29:51.995Z,993.13
2023-07-28T03:30:52.020Z,993.16
2023-07-28T03:31:52.008Z,993.14
2023-07-28T03:32:52.014Z,993.18
2023-07-28T03:33:51.908Z,993.17
2023-07-28T03:34:51.942Z,993.11
2023-07-28T03:35:51.929Z,993.14
2023-07-28T03:36:51.924Z,993.13
2023-07-28T03:37:51.867Z,993.14
2023-07-28T03:38:51.863Z,993.11
2023-07-28T03:39:51.841Z,993.11
2023-07-28T03:40:51.895Z,993.16
2023-07-28T03:41:51.826Z,993.15
2023-07-28T03:42:51.823Z,993.13
2023-07-28T03:43:51.797Z,993.16
2023-07-28T03:44:51.788Z,993.19
2023-07-28T03:45:51.885Z,993.18
2023-07-28T03:46:51.800Z,993.21
2023-07-28T03:47:51.806Z,993.17
2023-07-28T03:48:51.742Z,993.19
2023-07-28T03:49:51.725Z,993.22
2023-07-28T03:50:51.770Z,993.18
2023-07-28T03:51:51.705Z,993.24
2023-07-28T03:52:51.694Z,993.23
2023-07-28T03:53:51.750Z,993.27
2023-07-28T03:54:51.673Z,993.25
2023-07-28T03:55:51.690Z,993.24
2023-07-28T03:56:51.698Z,993.25
2023-07-28T03:57:51.642Z,993.23
2023-07-28T03:58:51.683Z,993.23
2023-07-28T03:59:51.613Z,993.23
2023-07-28T04:00:51.598Z,993.20
2023-07-28T04:01:51.623Z,993.22
2023-07-28T04:02:51.582Z,993.27
2023-07-28T04:03:51.632Z,993.23
2023-07-28T04:04:51.589Z,993.24
2023-07-28T04:05:51.528Z,993.27
2023-07-28T04:06:51.606Z,993.29
2023-07-28T04:07:51.542Z,993.31
2023-07-28T04:08:51.499Z,993.31
2023-07-28T04:09:51.503Z,993.31
2023-07-28T04:10:51.473Z,993.35
2023-07-28T04:11:51.505Z,993.35
2023-07-28T04:12:51.462Z,993.32
2023-07-28T04:13:51.444Z,993.30
2023-07-28T04:14:51.498Z,993.38
2023-07-28T04:15:51.425Z,993.37
2023-07-28T04:16:51.404Z,993.31
2023-07-28T04:17:51.524Z,993.30
2023-07-28T04:18:51.380Z,993.27
2023-07-28T04:19:51.367Z,993.26
2023-07-28T04:20:51.358Z,993.30
2023-07-28T04:21:51.342Z,993.26
2023-07-28T04:22:51.362Z,993.28
2023-07-28T04:23:51.344Z,993.26
2023-07-28T04:24:51.346Z,993.27
2023-07-28T04:25:51.300Z,993.26
2023-07-28T04:26:51.305Z,993.28
2023-07-28T04:27:51.301Z,993.31
2023-07-28T04:28:51.274Z,993.28
2023-07-28T04:29:51.355Z,993.29
2023-07-28T04:30:51.249Z,993.30
2023-07-28T04:31:51.299Z,993.33
2023-07-28T04:32:51.230Z,993.35
2023-07-28T04:33:51.218Z,993.34
2023-07-28T04:34:51.248Z,993.40
2023-07-28T04:35:51.186Z,993.40
2023-07-28T04:36:51.173Z,993.36
2023-07-28T04:37:51.152Z,993.36
2023-07-28T04:38:51.172Z,993.36
2023-07-28T04:39:51.168Z,993.37
2023-07-28T04:40:51.131Z,993.40
2023-07-28T04:41:51.109Z,993.39
2023-07-28T04:42:51.100Z,993.38
2023-07-28T04:43:51.090Z,993.43
2023-07-28T04:44:51.151Z,993.42
2023-07-28T04:45:51.094Z,993.45
2023-07-28T04:46:51.053Z,993.47
2023-07-28T04:47:51.183Z,993.47
2023-07-28T04:48:51.041Z,993.43
2023-07-28T04:49:51.025Z,993.50
2023-07-28T04:50:51.073Z,993.49
2023-07-28T04:51:50.992Z,993.49
2023-07-28T04:52:51.007Z,993.51
2023-07-28T04:53:50.966Z,993.51
2023-07-28T04:54:50.967Z,993.51
2023-07-28T04:55:50.942Z,993.54
2023-07-28T04:56:51.032Z,993.56
2023-07-28T04:57:50.919Z,993.54
2023-07-28T04:58:50.912Z,993.57
2023-07-28T04:59:50.901Z,993.55
2023-07-28T05:00:50.929Z,993.54
2023-07-28T05:01:50.874Z,993.55
2023-07-28T05:02:50.952Z,993.56
2023-07-28T05:03:50.858Z,993.51
2023-07-28T05:04:50.861Z,993.53
2023-07-28T05:05:50.823Z,993.52
2023-07-28T05:06:50.842Z,993.49
2023-07-28T05:07:50.806Z,993.52
2023-07-28T05:08:50.811Z,993.48
2023-07-28T05:09:50.783Z,993.50
2023-07-28T05:10:50.784Z,993.54
2023-07-28T05:11:50.768Z,993.52
2023-07-28T05:12:50.753Z,993.54
2023-07-28T05:13:50.768Z,993.52
2023-07-28T05:14:50.726Z,993.55
2023-07-28T05:15:50.800Z,993.59
2023-07-28T05:16:50.717Z,993.58
2023-07-28T05:17:50.732Z,993.60
2023-07-28T05:18:50.700Z,993.59
2023-07-28T05:19:50.681Z,993.61
2023-07-28T05:20:50.661Z,993.61
2023-07-28T05:21:50.632Z,993.60
2023-07-28T05:22:50.632Z,993.58
2023-07-28T05:23:50.662Z,993.57
2023-07-28T05:24:52.165Z,993.62
2023-07-28T05:25:50.596Z,993.55
2023-07-28T05:26:50.580Z,993.57
2023-07-28T05:27:50.611Z,993.57
2023-07-28T05:28:50.587Z,993.56
2023-07-28T05:29:50.546Z,993.56
2023-07-28T05:30:50.544Z,993.59
2023-07-28T05:31:50.520Z,993.61
2023-07-28T05:32:50.528Z,993.61
2023-07-28T05:33:50.508Z,993.63
2023-07-28T05:34:50.508Z,993.63
2023-07-28T05:35:50.500Z,993.66
2023-07-28T05:36:50.539Z,993.65
2023-07-28T05:37:50.451Z,993.63
2023-07-28T05:38:50.435Z,993.68
2023-07-28T05:39:50.455Z,993.60
2023-07-28T05:40:50.413Z,993.62
2023-07-28T05:41:52.090Z,993.68
2023-07-28T05:42:50.425Z,993.62
2023-07-28T05:43:52.030Z,993.61
2023-07-28T05:44:50.387Z,993.65
2023-07-28T05:45:50.356Z,993.61
2023-07-28T05:46:50.409Z,993.62
2023-07-28T05:47:50.387Z,993.62
2023-07-28T05:48:50.322Z,993.63
2023-07-28T05:49:50.343Z,993.61
2023-07-28T05:50:50.285Z,993.67
2023-07-28T05:51:50.284Z,993.64
2023-07-28T05:52:50.263Z,993.68
2023-07-28T05:53:50.258Z,993.68
2023-07-28T05:54:50.268Z,993.73
2023-07-28T05:55:50.241Z,993.73
2023-07-28T05:56:50.234Z,993.71
2023-07-28T05:57:50.228Z,993.74
2023-07-28T05:58:50.197Z,993.75
2023-07-28T05:59:50.185Z,993.72
2023-07-28T06:00:50.244Z,993.71
2023-07-28T06:01:50.201Z,993.77
2023-07-28T06:02:50.209Z,993.81
2023-07-28T06:03:50.180Z,993.83
2023-07-28T06:04:50.143Z,993.84
2023-07-28T06:05:50.124Z,993.86
2023-07-28T06:06:50.106Z,993.85
2023-07-28T06:07:50.157Z,993.91
2023-07-28T06:08:59.041Z,993.84
2023-07-28T06:09:50.067Z,993.93
2023-07-28T06:10:50.063Z,993.89
2023-07-28T06:11:50.053Z,993.89
2023-07-28T06:12:50.228Z,993.93
2023-07-28T06:13:50.027Z,993.93
2023-07-28T06:14:50.018Z,993.96
2023-07-28T06:15:50.016Z,993.92
2023-07-28T06:16:50.012Z,993.91
2023-07-28T06:17:51.678Z,993.90
2023-07-28T06:18:49.963Z,993.92
2023-07-28T06:19:49.953Z,993.96
2023-07-28T06:20:49.948Z,993.92
2023-07-28T06:21:49.958Z,993.98
2023-07-28T06:22:49.919Z,993.95
2023-07-28T06:23:49.928Z,994.00
2023-07-28T06:24:49.936Z,993.98
2023-07-28T06:25:49.907Z,994.00
2023-07-28T06:26:49.868Z,994.01
2023-07-28T06:27:49.898Z,994.07
2023-07-28T06:28:49.952Z,994.08
2023-07-28T06:29:49.876Z,994.07
2023-07-28T06:30:49.844Z,994.12
2023-07-28T06:31:49.801Z,994.11
2023-07-28T06:32:49.819Z,994.06
2023-07-28T06:33:49.798Z,994.09
2023-07-28T06:34:49.847Z,994.09
2023-07-28T06:35:49.773Z,994.10
2023-07-28T06:36:49.744Z,994.15
2023-07-28T06:37:56.760Z,994.16
2023-07-28T06:38:49.800Z,994.19
2023-07-28T06:39:49.710Z,994.13
2023-07-28T06:40:49.734Z,994.19
2023-07-28T06:41:49.682Z,994.16
2023-07-28T06:42:49.670Z,994.19
2023-07-28T06:43:49.676Z,994.20
2023-07-28T06:44:49.644Z,994.22
2023-07-28T06:45:49.687Z,994.17
2023-07-28T06:46:49.650Z,994.20
2023-07-28T06:47:49.628Z,994.24
2023-07-28T06:48:49.586Z,994.22
2023-07-28T06:49:49.581Z,994.27
2023-07-28T06:50:49.566Z,994.24
2023-07-28T06:51:49.554Z,994.32
2023-07-28T06:52:49.568Z,994.34
2023-07-28T06:53:49.532Z,994.31
2023-07-28T06:54:49.519Z,994.28
2023-07-28T06:55:49.536Z,994.29
2023-07-28T06:56:49.500Z,994.31
2023-07-28T06:57:49.518Z,994.31
2023-07-28T06:58:57.936Z,994.32
2023-07-28T06:59:50.463Z,994.39
2023-07-28T07:00:49.446Z,994.39
2023-07-28T07:01:49.508Z,994.39
2023-07-28T07:02:49.493Z,994.38
2023-07-28T07:03:49.420Z,994.40
2023-07-28T07:04:49.432Z,994.42
2023-07-28T07:05:49.396Z,994.39
2023-07-28T07:06:49.382Z,994.41
2023-07-28T07:07:49.441Z,994.46
2023-07-28T07:08:49.352Z,994.45
2023-07-28T07:09:49.340Z,994.50
2023-07-28T07:10:49.418Z,994.51
2023-07-28T07:11:49.393Z,994.50
2023-07-28T07:12:49.309Z,994.54
2023-07-28T07:13:49.294Z,994.52
2023-07-28T07:14:49.273Z,994.56
2023-07-28T07:15:49.340Z,994.56
2023-07-28T07:16:49.256Z,994.58
2023-07-28T07:17:49.345Z,994.60
2023-07-28T07:18:49.241Z,994.60
2023-07-28T07:19:49.224Z,994.63
2023-07-28T07:20:49.203Z,994.65
2023-07-28T07:21:49.192Z,994.68
2023-07-28T07:22:49.227Z,994.65
2023-07-28T07:23:49.188Z,994.66
2023-07-28T07:24:49.151Z,994.64
2023-07-28T07:25:49.149Z,994.64
2023-07-28T07:26:49.135Z,994.63
2023-07-28T07:27:49.170Z,994.59
2023-07-28T07:28:49.154Z,994.64
2023-07-28T07:29:49.108Z,994.63
2023-07-28T07:30:49.140Z,994.66
2023-07-28T07:31:49.126Z,994.62
2023-07-28T07:32:49.070Z,994.68
2023-07-28T07:33:49.107Z,994.65
2023-07-28T07:34:49.074Z,994.63
2023-07-28T07:35:49.046Z,994.67
2023-07-28T07:36:49.028Z,994.67
2023-07-28T07:37:49.029Z,994.68
2023-07-28T07:38:48.994Z,994.67
2023-07-28T07:39:49.020Z,994.65
2023-07-28T07:40:49.014Z,994.69
2023-07-28T07:41:48.995Z,994.63
2023-07-28T07:42:48.962Z,994.67
2023-07-28T07:43:49.092Z,994.66
2023-07-28T07:44:48.934Z,994.67
2023-07-28T07:45:48.950Z,994.66
2023-07-28T07:46:49.004Z,994.70
2023-07-28T07:47:49.008Z,994.68
2023-07-28T07:48:48.922Z,994.70
2023-07-28T07:49:48.899Z,994.70
2023-07-28T07:50:48.864Z,994.77
2023-07-28T07:51:48.865Z,994.70
2023-07-28T07:52:48.915Z,994.73
2023-07-28T07:53:48.845Z,994.72
2023-07-28T07:54:48.822Z,994.80
2023-07-28T07:55:48.814Z,994.77
2023-07-28T07:56:48.834Z,994.74
2023-07-28T07:57:48.840Z,994.74
2023-07-28T07:58:48.779Z,994.73
2023-07-28T07:59:48.780Z,994.76
2023-07-28T08:00:48.769Z,994.74
2023-07-28T08:01:48.763Z,994.78
2023-07-28T08:02:48.770Z,994.77
2023-07-28T08:03:48.773Z,994.79
2023-07-28T08:04:48.755Z,994.74
2023-07-28T08:05:48.720Z,994.76
2023-07-28T08:06:48.690Z,994.72
2023-07-28T08:07:48.682Z,994.72
2023-07-28T08:08:48.705Z,994.77
2023-07-28T08:09:48.656Z,994.74
2023-07-28T08:10:48.645Z,994.72
2023-07-28T08:11:48.631Z,994.72
2023-07-28T08:12:48.661Z,994.71
2023-07-28T08:13:48.614Z,994.78
2023-07-28T08:14:48.593Z,994.77
2023-07-28T08:15:48.633Z,994.74
2023-07-28T08:16:48.572Z,994.74
2023-07-28T08:17:48.580Z,994.80
2023-07-28T08:18:48.605Z,994.78
2023-07-28T08:19:48.543Z,994.76
2023-07-28T08:20:48.537Z,994.81
2023-07-28T08:21:48.528Z,994.82
2023-07-28T08:22:48.509Z,994.82
2023-07-28T08:23:48.566Z,994.83
2023-07-28T08:24:48.482Z,994.84
2023-07-28T08:25:48.473Z,994.86
2023-07-28T08:26:48.516Z,994.94
2023-07-28T08:27:48.478Z,994.88
2023-07-28T08:28:48.439Z,994.88
2023-07-28T08:29:48.468Z,994.87
2023-07-28T08:30:48.485Z,994.95
2023-07-28T08:31:48.405Z,994.88
2023-07-28T08:32:48.420Z,994.92
2023-07-28T08:33:48.376Z,994.95
2023-07-28T08:34:48.377Z,994.96
2023-07-28T08:35:48.442Z,994.91
2023-07-28T08:36:48.370Z,994.99
2023-07-28T08:37:48.333Z,994.99
2023-07-28T08:38:48.313Z,994.98
2023-07-28T08:39:48.335Z,995.01
2023-07-28T08:40:48.360Z,995.04
2023-07-28T08:41:48.304Z,995.03
2023-07-28T08:42:48.275Z,995.03
2023-07-28T08:43:48.263Z,995.00
2023-07-28T08:44:48.259Z,995.04
2023-07-28T08:45:48.278Z,995.07
2023-07-28T08:46:48.279Z,995.09
2023-07-28T08:47:48.331Z,995.10
2023-07-28T08:48:48.276Z,995.10
2023-07-28T08:49:50.718Z,995.07
2023-07-28T08:50:48.175Z,995.10
2023-07-28T08:51:48.162Z,995.08
2023-07-28T08:52:48.210Z,995.12
2023-07-28T08:53:48.182Z,995.15
2023-07-28T08:54:48.188Z,995.14
2023-07-28T08:55:48.121Z,995.13
2023-07-28T08:56:48.104Z,995.15
2023-07-28T08:57:48.272Z,995.16
2023-07-28T08:58:48.084Z,995.18
2023-07-28T08:59:48.073Z,995.17
2023-07-28T09:00:48.090Z,995.17
2023-07-28T09:01:48.067Z,995.15
2023-07-28T09:02:48.088Z,995.13
2023-07-28T09:03:48.035Z,995.18
2023-07-28T09:04:48.035Z,995.17
2023-07-28T09:05:48.010Z,995.23
2023-07-28T09:06:47.990Z,995.25
2023-07-28T09:07:48.028Z,995.27
2023-07-28T09:08:47.976Z,995.26
2023-07-28T09:09:47.961Z,995.28
2023-07-28T09:10:47.943Z,995.29
2023-07-28T09:11:47.937Z,995.25
2023-07-28T09:12:47.937Z,995.28
2023-07-28T09:13:47.962Z,995.27
2023-07-28T09:14:47.900Z,995.32
2023-07-28T09:15:47.892Z,995.29
2023-07-28T09:16:48.045Z,995.31
2023-07-28T09:17:48.041Z,995.26
2023-07-28T09:18:47.887Z,995.33
2023-07-28T09:19:47.844Z,995.35
2023-07-28T09:20:47.866Z,995.27
2023-07-28T09:21:47.823Z,995.32
2023-07-28T09:22:47.854Z,995.28
2023-07-28T09:23:47.802Z,995.32
2023-07-28T09:24:47.784Z,995.33
2023-07-28T09:25:47.772Z,995.28
2023-07-28T09:26:47.761Z,995.35
2023-07-28T09:27:47.836Z,995.29
2023-07-28T09:28:47.924Z,995.30
2023-07-28T09:29:47.731Z,995.27
2023-07-28T09:30:47.888Z,995.28
2023-07-28T09:31:47.712Z,995.28
2023-07-28T09:32:47.755Z,995.29
2023-07-28T09:33:47.769Z,995.27
2023-07-28T09:34:47.667Z,995.32
2023-07-28T09:35:47.719Z,995.29
2023-07-28T09:36:47.664Z,995.29
2023-07-28T09:37:47.634Z,995.31
2023-07-28T09:38:47.656Z,995.28
2023-07-28T09:39:47.652Z,995.28
2023-07-28T09:40:47.630Z,995.29
2023-07-28T09:41:47.653Z,995.25
2023-07-28T09:42:47.616Z,995.29
2023-07-28T09:43:47.563Z,995.27
2023-07-28T09:44:47.554Z,995.31
2023-07-28T09:45:47.601Z,995.29
2023-07-28T09:46:47.571Z,995.35
2023-07-28T09:47:47.522Z,995.33
2023-07-28T09:48:47.541Z,995.29
2023-07-28T09:49:47.496Z,995.30
2023-07-28T09:50:47.534Z,995.36
2023-07-28T09:51:47.486Z,995.30
2023-07-28T09:52:47.461Z,995.32
2023-07-28T09:53:47.453Z,995.34
2023-07-28T09:54:47.430Z,995.32
2023-07-28T09:55:47.493Z,995.31
2023-07-28T09:56:47.410Z,995.35
2023-07-28T09:57:47.394Z,995.35
2023-07-28T09:58:47.387Z,995.34
2023-07-28T09:59:47.377Z,995.34
2023-07-28T10:00:47.444Z,995.36
2023-07-28T10:01:48.361Z,995.33
2023-07-28T10:02:47.431Z,995.37
2023-07-28T10:03:47.529Z,995.34
2023-07-28T10:04:47.311Z,995.37
2023-07-28T10:05:47.299Z,995.34
2023-07-28T10:06:47.389Z,995.36
2023-07-28T10:07:47.888Z,995.40
2023-07-28T10:08:47.288Z,995.33
2023-07-28T10:09:47.253Z,995.35
2023-07-28T10:10:47.244Z,995.37
2023-07-28T10:11:47.302Z,995.39
2023-07-28T10:12:47.236Z,995.40
2023-07-28T10:13:47.270Z,995.38
2023-07-28T10:14:47.241Z,995.37
2023-07-28T10:15:47.204Z,995.37
2023-07-28T10:16:47.218Z,995.37
2023-07-28T10:17:47.187Z,995.38
2023-07-28T10:18:47.154Z,995.43
2023-07-28T10:19:47.173Z,995.48
2023-07-28T10:20:47.128Z,995.47
2023-07-28T10:21:47.202Z,995.46
2023-07-28T10:22:47.203Z,995.49
2023-07-28T10:23:47.081Z,995.49
2023-07-28T10:24:47.094Z,995.55
2023-07-28T10:25:47.072Z,995.53
2023-07-28T10:26:47.110Z,995.53
2023-07-28T10:27:47.036Z,995.55
2023-07-28T10:28:47.029Z,995.55
2023-07-28T10:29:47.016Z,995.56
2023-07-28T10:30:47.008Z,995.56
2023-07-28T10:31:47.021Z,995.56
2023-07-28T10:32:47.050Z,995.57
2023-07-28T10:33:46.972Z,995.58
2023-07-28T10:34:46.958Z,995.58
2023-07-28T10:35:46.974Z,995.58
2023-07-28T10:36:46.949Z,995.63
2023-07-28T10:37:46.918Z,995.62
2023-07-28T10:38:46.960Z,995.62
2023-07-28T10:39:46.901Z,995.64
2023-07-28T10:40:46.918Z,995.63
2023-07-28T10:41:46.868Z,995.66
2023-07-28T10:42:46.860Z,995.68
2023-07-28T10:43:46.892Z,995.74
2023-07-28T10:44:46.941Z,995.63
2023-07-28T10:45:46.875Z,995.68
2023-07-28T10:46:46.876Z,995.61
2023-07-28T10:47:46.840Z,995.64
2023-07-28T10:48:46.802Z,995.68
2023-07-28T10:49:46.857Z,995.64
2023-07-28T10:50:46.766Z,995.68
2023-07-28T10:51:46.785Z,995.67
2023-07-28T10:52:46.756Z,995.69
2023-07-28T10:53:46.741Z,995.75
2023-07-28T10:54:46.721Z,995.73
2023-07-28T10:55:46.708Z,995.72
2023-07-28T10:56:46.746Z,995.71
2023-07-28T10:57:46.699Z,995.72
2023-07-28T10:58:46.746Z,995.71
2023-07-28T10:59:46.659Z,995.70
2023-07-28T11:00:46.742Z,995.75
2023-07-28T11:01:46.679Z,995.69
2023-07-28T11:02:46.810Z,995.72
2023-07-28T11:03:46.610Z,995.70
2023-07-28T11:04:46.600Z,995.72
2023-07-28T11:05:46.595Z,995.72
2023-07-28T11:06:46.627Z,995.72
2023-07-28T11:07:46.609Z,995.70
2023-07-28T11:08:46.576Z,995.63
2023-07-28T11:09:46.550Z,995.64
2023-07-28T11:10:46.562Z,995.68
2023-07-28T11:11:47.749Z,995.67
2023-07-28T11:12:46.523Z,995.69
2023-07-28T11:13:46.509Z,995.63
2023-07-28T11:14:46.532Z,995.64
2023-07-28T11:15:46.460Z,995.62
2023-07-28T11:16:46.468Z,995.63
2023-07-28T11:17:46.852Z,995.67
2023-07-28T11:18:46.433Z,995.61
2023-07-28T11:19:46.433Z,995.61
2023-07-28T11:20:46.414Z,995.66
2023-07-28T11:21:46.403Z,995.65
2023-07-28T11:22:46.521Z,995.64
2023-07-28T11:23:46.389Z,995.66
2023-07-28T11:24:46.374Z,995.65
2023-07-28T11:25:46.360Z,995.69
2023-07-28T11:26:46.347Z,995.65
2023-07-28T11:27:46.381Z,995.64
2023-07-28T11:28:46.331Z,995.63
2023-07-28T11:29:46.330Z,995.68
2023-07-28T11:30:46.325Z,995.68
2023-07-28T11:31:46.289Z,995.67
2023-07-28T11:32:46.312Z,995.65
2023-07-28T11:33:46.301Z,995.68
2023-07-28T11:34:46.292Z,995.68
2023-07-28T11:35:46.249Z,995.70
2023-07-28T11:36:46.227Z,995.70
2023-07-28T11:37:46.220Z,995.70
2023-07-28T11:38:46.203Z,995.69
2023-07-28T11:39:46.242Z,995.66
2023-07-28T11:40:46.179Z,995.66
2023-07-28T11:41:46.170Z,995.65
2023-07-28T11:42:46.239Z,995.62
2023-07-28T11:43:46.143Z,995.63
2023-07-28T11:44:46.167Z,995.60
2023-07-28T11:45:46.173Z,995.62
2023-07-28T11:46:46.153Z,995.60
2023-07-28T11:47:46.168Z,995.62
2023-07-28T11:48:46.145Z,995.61
2023-07-28T11:49:46.068Z,995.66
2023-07-28T11:50:46.123Z,995.70
2023-07-28T11:51:46.059Z,995.66
2023-07-28T11:52:46.036Z,995.70
2023-07-28T11:53:46.038Z,995.67
2023-07-28T11:54:46.013Z,995.66
2023-07-28T11:55:46.052Z,995.65
2023-07-28T11:56:46.005Z,995.67
2023-07-28T11:57:45.978Z,995.69
2023-07-28T11:58:45.965Z,995.68
2023-07-28T11:59:45.963Z,995.64
2023-07-28T12:00:46.001Z,995.65
2023-07-28T12:02:46.124Z,995.55
2023-07-28T12:03:46.024Z,995.64
2023-07-28T12:07:45.860Z,995.61
2023-07-28T12:08:45.913Z,995.57
2023-07-28T12:09:45.841Z,995.52
2023-07-28T12:10:45.833Z,995.60
2023-07-28T12:14:49.530Z,995.51
2023-07-28T12:14:50.617Z,995.55
2023-07-28T12:19:45.837Z,995.57
2023-07-28T12:20:45.730Z,995.53
2023-07-28T12:21:45.717Z,995.52
2023-07-28T12:22:45.709Z,995.57
2023-07-28T12:24:45.719Z,995.53
2023-07-28T12:25:45.654Z,995.58
2023-07-28T12:26:45.677Z,995.58
2023-07-28T12:27:45.627Z,995.56
2023-07-28T12:28:45.658Z,995.57
2023-07-28T12:30:45.730Z,995.53
2023-07-28T12:31:46.676Z,995.56
2023-07-28T12:33:49.266Z,995.53
2023-07-28T12:34:51.275Z,995.53
2023-07-28T12:38:45.511Z,995.50
2023-07-28T12:41:47.960Z,995.53
2023-07-28T12:46:45.565Z,995.59
2023-07-28T12:47:45.424Z,995.62
2023-07-28T12:48:48.712Z,995.62
2023-07-28T12:49:52.210Z,995.62
2023-07-28T12:50:46.416Z,995.65